Tuesday, July 17, 2018, 1:38 AM EDT
Back to Local

KHLG, Wheeling Ohio County Airport

Location: Wheeling, WV, United States Lat: 40.167
Local Time: 1:38 AM EDT ( 5:38 GMT) Lon: -80.65
Time Zone: US/Eastern Elev: 1194 ft

Show me the last for .
Show Decoded

2018-07-17 00:53 METAR KHLG 170453Z AUTO 18006KT 10SM CLR 23/21 A2993 RMK AO2 SLP125 T02280206
                 403280206 =
2018-07-16 23:53 METAR KHLG 170353Z AUTO 20005KT 10SM BKN047 OVC060 23/20 A2995 RMK AO2 SLP131
                 T02330200 =
2018-07-16 22:53 METAR KHLG 170253Z AUTO 17007KT 10SM CLR 23/19 A2994 RMK AO2 SLP131 60000
                 T02330194 53006 =
2018-07-16 21:53 METAR KHLG 170153Z 20004KT 10SM CLR 24/20 A2992 RMK AO2 RAB03E21 SLP124 P0000
                 T02440200 =
2018-07-16 20:53 METAR KHLG 170053Z 22007KT 10SM SCT110 26/21 A2993 RMK AO2 LTG DSNT N SLP127
                 T02560206 =
2018-07-16 19:53 METAR KHLG 162353Z 22007KT 10SM FEW120 27/21 A2993 RMK AO2 LTG DSNT NW RAB06E16
                 SLP126 P0000 60002 T02670206 10328 20250 55005 =
2018-07-16 18:53 METAR KHLG 162253Z 22009KT 10SM CLR 29/21 A2991 RMK AO2 SLP118 T02940211 =
2018-07-16 17:53 METAR KHLG 162153Z 22010KT 10SM CLR 29/22 A2991 RMK AO2 LTG DSNT S SLP119
                 T02940217 =
2018-07-16 16:11 METAR KHLG 162011Z 28003KT 10SM SCT041 BKN050 OVC110 27/22 A2994 RMK AO2
                 RAB1955E11 TSE05 P0002 T02670217 =
2018-07-16 15:53 METAR KHLG 161953Z 24010G22KT 10SM TS FEW070 SCT100 27/21 A2995 RMK AO2 TSB44
                 SLP134 T02670211 =
2018-07-16 15:32 METAR KHLG 161932Z 23008KT 10SM VCTS FEW042 SCT065 32/21 A2994 RMK AO2 LTG DSNT
                 S T03170211 =
2018-07-16 14:53 METAR KHLG 161853Z 16007KT 10SM CLR 33/22 A2996 RMK AO2 LTG DSNT NW SLP135
                 T03280217 =
2018-07-16 13:53 METAR KHLG 161753Z 21009KT 10SM CLR 32/21 A2998 RMK AO2 SLP144 T03170211 10317
                 20222 58014 =
2018-07-16 12:53 METAR KHLG 161653Z 22010KT 10SM SCT033 SCT043 30/22 A3001 RMK AO2 SLP153
                 T03000217 =
2018-07-16 11:53 METAR KHLG 161553Z 23005KT 10SM FEW025 29/22 A3002 RMK AO2 SLP158 T02940222 =
2018-07-16 10:53 METAR KHLG 161453Z 20005KT 10SM FEW021 29/23 A3003 RMK AO2 SLP159 T02890228
                 58003 =
2018-07-16 09:53 METAR KHLG 161353Z 20004KT 10SM CLR 26/22 A3003 RMK AO2 SLP162 T02610217 =
2018-07-16 08:53 METAR KHLG 161253Z 20003KT 10SM CLR 24/21 A3003 RMK AO2 SLP163 T02440211 =
2018-07-16 07:53 METAR KHLG 161153Z 20003KT 10SM CLR 22/20 A3003 RMK AO2 SLP164 70001 T02220200
                 10222 20206 51007 =
2018-07-16 06:53 METAR KHLG 161053Z 17004KT 10SM CLR 21/19 A3003 RMK AO2 SLP164 T02110194 =
2018-07-16 05:53 METAR KHLG 160953Z AUTO 19005KT 9SM CLR 21/19 A3003 RMK AO2 SLP161 T02060194 =
2018-07-16 04:53 METAR KHLG 160853Z AUTO 19005KT 10SM CLR 21/19 A3001 RMK AO2 SLP157 T02110194
                 56004 =
2018-07-16 03:53 METAR KHLG 160753Z AUTO 19005KT 8SM CLR 21/20 A3001 RMK AO2 SLP155 T02110200 =
2018-07-16 02:53 METAR KHLG 160653Z AUTO 21005KT 10SM CLR 21/20 A3002 RMK AO2 SLP157 T02110200 =
2018-07-16 01:53 METAR KHLG 160553Z AUTO 18005KT 10SM CLR 22/20 A3002 RMK AO2 SLP160 T02170200
                 10233 20211 58006 =

Support USWX by starting your Amazon purchase here.